Time;durP1;ratioP1;P1;durP2;ratioP2;P2;SDS_P1;SDS_P2;PMS_P1;PMS_P2;Temp;Humidity;BMP_temperature;BMP_pressure;BME280_temperature;BME280_humidity;BME280_pressure;Samples;Min_cycle;Max_cycle;Signal;HPM_P1;HPM_P2
2024/02/20 00:00:15;;;;;;;3.00;2.70;;;21.70;56.70;;;;;;5052607;28;20210;-68
2024/02/20 00:02:42;;;;;;;3.57;2.83;;;21.70;56.70;;;;;;5052795;28;20201;-69
2024/02/20 00:05:11;;;;;;;2.87;2.47;;;21.70;56.70;;;;;;5052531;28;20409;-69
2024/02/20 00:07:38;;;;;;;3.47;3.00;;;21.70;56.70;;;;;;5052476;28;20409;-68
2024/02/20 00:10:11;;;;;;;3.57;2.70;;;21.70;56.70;;;;;;5052412;28;20453;-69
2024/02/20 00:12:37;;;;;;;4.80;3.17;;;21.70;56.70;;;;;;5052417;28;20429;-70
2024/02/20 00:15:09;;;;;;;3.00;2.70;;;21.70;57.20;;;;;;5052612;28;20410;-68
2024/02/20 00:17:35;;;;;;;3.87;2.97;;;21.70;56.70;;;;;;5051123;28;20406;-69
2024/02/20 00:20:05;;;;;;;3.20;2.70;;;21.70;56.70;;;;;;5052233;28;20445;-69
2024/02/20 00:22:33;;;;;;;3.40;2.60;;;21.70;56.70;;;;;;5052186;28;20438;-69
2024/02/20 00:24:59;;;;;;;2.70;2.37;;;21.70;56.70;;;;;;5033156;28;20434;-68
2024/02/20 00:27:25;;;;;;;4.30;3.00;;;21.70;56.70;;;;;;5031151;28;20410;-69
2024/02/20 00:29:50;;;;;;;3.03;2.70;;;21.70;56.70;;;;;;5030554;28;20282;-69
2024/02/20 00:32:22;;;;;;;3.17;2.87;;;21.70;56.70;;;;;;5030911;28;20701;-69
2024/02/20 00:34:48;;;;;;;3.43;2.60;;;21.70;56.70;;;;;;5032271;28;20195;-69
2024/02/20 00:37:15;;;;;;;6.90;2.97;;;21.70;56.70;;;;;;5032371;28;20410;-68
2024/02/20 00:39:41;;;;;;;3.23;2.80;;;21.70;56.70;;;;;;5032457;28;20172;-69
2024/02/20 00:42:07;;;;;;;3.10;2.60;;;21.70;56.70;;;;;;5032227;28;20426;-70
2024/02/20 00:44:33;;;;;;;2.73;2.33;;;21.70;56.70;;;;;;5032130;28;20223;-69
2024/02/20 00:46:59;;;;;;;4.37;3.13;;;21.70;56.70;;;;;;5032279;28;20473;-68
2024/02/20 00:49:25;;;;;;;3.63;2.53;;;21.70;56.70;;;;;;5031988;28;20520;-70
2024/02/20 00:51:50;;;;;;;3.13;2.40;;;21.70;56.80;;;;;;5032077;28;20199;-69
2024/02/20 00:54:17;;;;;;;3.40;2.30;;;21.70;56.70;;;;;;5030808;28;20182;-69
2024/02/20 00:56:44;;;;;;;3.83;2.80;;;21.70;56.70;;;;;;5031951;28;20164;-69
2024/02/20 00:59:09;;;;;;;3.20;2.37;;;21.70;56.70;;;;;;5032251;28;20419;-68
2024/02/20 01:01:35;;;;;;;2.67;2.40;;;21.70;56.80;;;;;;5032074;28;20412;-69
2024/02/20 01:04:01;;;;;;;3.00;2.70;;;21.70;56.70;;;;;;5038267;28;20183;-68
2024/02/20 01:06:26;;;;;;;3.43;2.47;;;21.70;56.70;;;;;;5051336;28;20719;-68
2024/02/20 01:08:52;;;;;;;2.70;2.30;;;21.70;56.70;;;;;;5052590;28;20290;-70
2024/02/20 01:11:17;;;;;;;3.30;2.40;;;21.70;56.80;;;;;;5055280;28;20207;-68
2024/02/20 01:13:43;;;;;;;3.30;2.80;;;21.70;56.70;;;;;;5055589;28;20194;-69
2024/02/20 01:16:08;;;;;;;3.53;2.90;;;21.70;56.70;;;;;;5055652;28;20181;-69
2024/02/20 01:18:41;;;;;;;3.50;2.50;;;21.70;56.80;;;;;;5055427;28;20187;-69
2024/02/20 01:21:07;;;;;;;2.97;2.67;;;21.70;56.80;;;;;;5054312;28;20178;-70
2024/02/20 01:23:33;;;;;;;2.53;2.33;;;21.70;56.80;;;;;;5054996;28;20433;-69
2024/02/20 01:25:58;;;;;;;3.10;2.27;;;21.70;56.80;;;;;;5055033;28;20175;-69
2024/02/20 01:28:24;;;;;;;3.30;2.57;;;21.70;56.80;;;;;;5054443;28;20171;-69
2024/02/20 01:30:51;;;;;;;2.67;2.30;;;21.60;56.70;;;;;;5054196;28;20278;-69
2024/02/20 01:33:16;;;;;;;3.33;2.60;;;21.60;56.70;;;;;;5054195;28;20201;-69
2024/02/20 01:35:42;;;;;;;3.33;2.70;;;21.60;56.70;;;;;;5054845;28;20397;-69
2024/02/20 01:38:08;;;;;;;3.00;2.53;;;21.60;56.70;;;;;;5055336;28;20285;-68
2024/02/20 01:40:36;;;;;;;2.60;2.30;;;21.60;56.70;;;;;;5054778;28;20420;-69
2024/02/20 01:43:05;;;;;;;3.10;2.57;;;21.60;56.70;;;;;;5055253;28;20218;-69
2024/02/20 01:45:34;;;;;;;3.10;2.80;;;21.60;56.70;;;;;;5054770;28;20418;-69
2024/02/20 01:48:03;;;;;;;3.30;2.40;;;21.60;56.70;;;;;;5055288;28;20422;-67
2024/02/20 01:50:36;;;;;;;3.30;2.47;;;21.60;56.70;;;;;;5054447;28;20452;-68
2024/02/20 01:53:04;;;;;;;3.00;2.67;;;21.60;56.70;;;;;;5054407;28;20428;-68
2024/02/20 01:55:31;;;;;;;3.60;2.87;;;21.60;56.70;;;;;;5055493;28;20409;-69
2024/02/20 01:57:57;;;;;;;3.33;2.10;;;21.60;56.70;;;;;;5054889;28;20491;-68
2024/02/20 02:00:23;;;;;;;3.20;2.57;;;21.60;56.70;;;;;;5055336;28;20405;-68
2024/02/20 02:02:48;;;;;;;2.90;2.40;;;21.60;56.70;;;;;;5055119;28;20783;-69
2024/02/20 02:05:14;;;;;;;3.13;2.50;;;21.60;56.70;;;;;;5053624;28;20917;-68
2024/02/20 02:07:40;;;;;;;2.47;2.13;;;21.60;56.70;;;;;;5054765;28;20490;-69
2024/02/20 02:10:06;;;;;;;2.83;2.53;;;21.60;56.70;;;;;;5054732;28;20225;-69
2024/02/20 02:12:32;;;;;;;3.20;2.70;;;21.60;56.70;;;;;;5054676;28;20456;-67
2024/02/20 02:14:58;;;;;;;3.33;2.53;;;21.60;56.70;;;;;;5054552;28;20437;-69
2024/02/20 02:17:23;;;;;;;2.50;2.27;;;21.60;56.70;;;;;;5054752;28;20171;-68
2024/02/20 02:19:49;;;;;;;2.83;2.03;;;21.60;56.70;;;;;;5054406;28;20195;-68
2024/02/20 02:22:15;;;;;;;3.00;2.50;;;21.60;56.70;;;;;;5054868;28;20573;-69
2024/02/20 02:24:41;;;;;;;2.67;2.20;;;21.60;56.80;;;;;;5053483;28;20526;-68
2024/02/20 02:27:07;;;;;;;2.57;2.37;;;21.60;56.70;;;;;;5055099;28;20661;-69
2024/02/20 02:29:32;;;;;;;2.50;2.20;;;21.60;56.70;;;;;;5054012;28;20539;-68
2024/02/20 02:31:59;;;;;;;2.73;2.53;;;21.60;56.70;;;;;;5054383;28;20190;-69
2024/02/20 02:34:29;;;;;;;2.83;2.20;;;21.60;56.70;;;;;;5054108;28;20171;-69
2024/02/20 02:36:57;;;;;;;2.80;2.50;;;21.60;56.70;;;;;;5054440;28;20500;-68
2024/02/20 02:39:23;;;;;;;5.83;2.37;;;21.60;56.80;;;;;;5052989;28;20421;-69
2024/02/20 02:41:52;;;;;;;3.10;2.80;;;21.60;56.70;;;;;;5054318;28;20793;-69
2024/02/20 02:44:19;;;;;;;2.37;2.17;;;21.60;56.70;;;;;;5054016;28;20409;-69
2024/02/20 02:46:45;;;;;;;3.27;2.50;;;21.60;56.70;;;;;;5054552;28;20402;-69
2024/02/20 02:49:10;;;;;;;3.07;2.33;;;21.60;56.70;;;;;;5054760;28;20453;-69
2024/02/20 02:51:37;;;;;;;2.30;2.10;;;21.60;56.70;;;;;;5054164;28;20908;-69
2024/02/20 02:54:02;;;;;;;3.50;2.47;;;21.60;56.70;;;;;;5054318;28;20167;-69
2024/02/20 02:56:29;;;;;;;2.63;2.20;;;21.60;56.80;;;;;;5054495;28;20420;-69
2024/02/20 02:58:55;;;;;;;2.80;2.20;;;21.60;56.70;;;;;;5053769;28;20186;-68
2024/02/20 03:01:22;;;;;;;3.30;2.43;;;21.60;56.70;;;;;;5052416;28;20508;-69
2024/02/20 03:03:48;;;;;;;1.97;1.80;;;21.60;56.80;;;;;;5053683;28;20413;-68
2024/02/20 03:06:14;;;;;;;2.40;2.10;;;21.60;56.70;;;;;;5053678;28;20403;-68
2024/02/20 03:08:40;;;;;;;2.57;2.00;;;21.60;56.70;;;;;;5053864;28;20183;-68
2024/02/20 03:11:05;;;;;;;2.90;2.17;;;21.60;56.80;;;;;;5054426;28;20171;-69
2024/02/20 03:13:34;;;;;;;2.53;2.00;;;21.60;56.70;;;;;;5053457;28;20802;-68
2024/02/20 03:16:01;;;;;;;3.87;2.70;;;21.60;56.80;;;;;;5053895;28;20175;-69
2024/02/20 03:18:27;;;;;;;2.90;2.60;;;21.50;56.70;;;;;;5053344;28;20433;-68
2024/02/20 03:20:53;;;;;;;2.50;2.20;;;21.60;56.70;;;;;;5053800;28;20452;-69
2024/02/20 03:23:19;;;;;;;3.27;2.70;;;21.60;56.80;;;;;;5053420;28;20433;-69
2024/02/20 03:25:45;;;;;;;3.50;2.77;;;21.50;56.70;;;;;;5053395;28;20248;-68
2024/02/20 03:28:10;;;;;;;3.17;2.10;;;21.50;56.70;;;;;;5053398;28;20171;-69
2024/02/20 03:30:36;;;;;;;2.70;1.93;;;21.50;56.70;;;;;;5053328;28;20202;-69
2024/02/20 03:33:01;;;;;;;2.63;2.37;;;21.60;56.70;;;;;;5053098;28;20195;-68
2024/02/20 03:35:27;;;;;;;2.50;2.03;;;21.50;56.70;;;;;;5053007;28;20254;-68
2024/02/20 03:37:52;;;;;;;3.10;2.73;;;21.50;56.70;;;;;;5052636;28;20575;-69
2024/02/20 03:40:19;;;;;;;2.50;2.00;;;21.60;56.80;;;;;;5053125;28;20191;-69
2024/02/20 03:42:45;;;;;;;2.63;2.00;;;21.50;56.70;;;;;;5052783;28;20202;-69
2024/02/20 03:45:11;;;;;;;4.13;2.07;;;21.50;57.20;;;;;;5053065;28;20409;-68
2024/02/20 03:47:36;;;;;;;2.53;2.17;;;21.50;56.70;;;;;;5053214;28;20178;-69
2024/02/20 03:50:04;;;;;;;1.87;1.77;;;21.50;56.70;;;;;;5052948;28;20317;-69
2024/02/20 03:52:29;;;;;;;2.70;1.73;;;21.50;56.70;;;;;;5035225;28;20690;-68
2024/02/20 03:54:55;;;;;;;2.40;2.20;;;21.50;56.70;;;;;;5052918;28;20445;-69
2024/02/20 03:57:21;;;;;;;2.37;2.10;;;21.50;56.70;;;;;;5053219;28;20183;-69
2024/02/20 03:59:47;;;;;;;2.47;2.27;;;21.50;56.70;;;;;;5052659;28;20211;-69
2024/02/20 04:02:13;;;;;;;2.67;2.00;;;21.50;56.70;;;;;;5052765;28;20206;-70
2024/02/20 04:04:38;;;;;;;2.83;2.53;;;21.50;56.70;;;;;;5052639;28;20516;-69
2024/02/20 04:07:04;;;;;;;2.30;1.90;;;21.50;56.70;;;;;;5052955;28;20179;-69
2024/02/20 04:09:30;;;;;;;3.30;2.27;;;21.50;56.70;;;;;;5052537;28;20269;-69
2024/02/20 04:11:56;;;;;;;3.07;2.30;;;21.50;56.70;;;;;;5052642;28;20605;-68
2024/02/20 04:14:22;;;;;;;2.10;1.80;;;21.50;56.70;;;;;;5052526;28;20463;-68
2024/02/20 04:16:47;;;;;;;3.10;2.37;;;21.50;56.70;;;;;;5052788;28;20170;-69
2024/02/20 04:19:13;;;;;;;2.43;2.20;;;21.50;56.70;;;;;;5052183;28;20190;-69
2024/02/20 04:21:38;;;;;;;2.80;2.17;;;21.50;56.70;;;;;;5052397;28;20202;-69
2024/02/20 04:24:06;;;;;;;2.53;2.33;;;21.50;56.80;;;;;;5052997;28;20198;-69
2024/02/20 04:26:32;;;;;;;2.10;1.80;;;21.50;56.70;;;;;;5052683;28;20171;-68
2024/02/20 04:28:58;;;;;;;2.10;1.80;;;21.50;56.70;;;;;;5052995;28;20469;-69
2024/02/20 04:31:23;;;;;;;2.40;1.90;;;21.50;56.80;;;;;;5052222;28;20215;-68
2024/02/20 04:33:49;;;;;;;2.70;2.37;;;21.50;56.70;;;;;;5052353;28;20174;-69
2024/02/20 04:36:15;;;;;;;2.90;2.00;;;21.50;56.70;;;;;;5052541;28;20175;-69
2024/02/20 04:38:40;;;;;;;2.17;1.80;;;21.50;56.70;;;;;;5052430;28;20547;-69
2024/02/20 04:41:07;;;;;;;2.83;2.40;;;21.50;56.70;;;;;;5052795;28;20254;-69
2024/02/20 04:43:34;;;;;;;3.07;2.37;;;21.50;56.70;;;;;;5054159;28;20244;-69
2024/02/20 04:45:59;;;;;;;2.37;1.97;;;21.50;56.70;;;;;;5056873;28;20437;-69
2024/02/20 04:48:25;;;;;;;2.57;2.10;;;21.50;56.70;;;;;;5056559;28;20429;-69
2024/02/20 04:50:50;;;;;;;2.60;2.20;;;21.50;56.70;;;;;;5056399;28;20242;-69
2024/02/20 04:53:16;;;;;;;2.30;2.00;;;21.50;56.70;;;;;;5056485;28;20186;-67
2024/02/20 04:55:42;;;;;;;4.93;2.00;;;21.50;56.70;;;;;;5056477;28;20171;-69
2024/02/20 04:58:08;;;;;;;3.13;2.00;;;21.50;56.70;;;;;;5056639;28;20702;-69
2024/02/20 05:00:33;;;;;;;2.10;1.80;;;21.50;56.70;;;;;;5056384;28;20167;-68
2024/02/20 05:03:00;;;;;;;2.23;2.03;;;21.50;56.70;;;;;;5055943;28;20445;-69
2024/02/20 05:05:25;;;;;;;3.20;2.30;;;21.50;56.80;;;;;;5056414;28;20548;-69
2024/02/20 05:07:51;;;;;;;2.90;2.40;;;21.50;56.70;;;;;;5056286;28;20496;-68
2024/02/20 05:10:16;;;;;;;2.17;1.97;;;21.50;56.70;;;;;;5056017;28;20203;-68
2024/02/20 05:12:43;;;;;;;2.57;2.10;;;21.50;56.70;;;;;;5055678;28;20191;-68
2024/02/20 05:15:09;;;;;;;2.90;2.03;;;21.50;56.70;;;;;;5055997;28;20560;-68
2024/02/20 05:17:35;;;;;;;2.23;1.87;;;21.50;56.80;;;;;;5055797;28;20406;-68
2024/02/20 05:20:01;;;;;;;2.10;1.80;;;21.50;56.70;;;;;;5056221;28;20516;-68
2024/02/20 05:22:27;;;;;;;2.33;2.07;;;21.50;56.80;;;;;;5055632;28;20231;-69
2024/02/20 05:24:53;;;;;;;2.67;2.23;;;21.50;56.80;;;;;;5056079;28;20167;-68
2024/02/20 05:27:19;;;;;;;2.27;1.77;;;21.50;56.80;;;;;;5056039;28;20420;-68
2024/02/20 05:29:45;;;;;;;2.60;2.40;;;21.50;56.70;;;;;;5055569;28;20584;-69
2024/02/20 05:32:11;;;;;;;2.23;1.93;;;21.50;56.80;;;;;;5055698;28;20508;-69
2024/02/20 05:34:36;;;;;;;3.10;2.20;;;21.50;56.70;;;;;;5055719;28;20182;-69
2024/02/20 05:37:02;;;;;;;2.10;1.90;;;21.50;56.80;;;;;;5055812;28;20167;-69
2024/02/20 05:39:28;;;;;;;2.20;1.80;;;21.50;56.70;;;;;;5056229;28;20267;-68
2024/02/20 05:41:55;;;;;;;2.50;2.20;;;21.50;56.70;;;;;;5055804;28;20202;-68
2024/02/20 05:44:20;;;;;;;1.77;1.53;;;21.50;56.70;;;;;;5046270;28;20176;-69
2024/02/20 05:46:46;;;;;;;2.90;1.90;;;21.50;56.70;;;;;;5054581;28;20421;-69
2024/02/20 05:49:12;;;;;;;2.30;1.80;;;21.50;56.70;;;;;;5053926;28;20195;-69
2024/02/20 05:51:37;;;;;;;2.23;1.67;;;21.50;56.70;;;;;;5053510;28;20673;-69
2024/02/20 05:54:03;;;;;;;2.77;2.03;;;21.50;56.70;;;;;;5053159;28;20172;-67
2024/02/20 05:56:28;;;;;;;3.07;2.20;;;21.50;56.60;;;;;;5053592;28;20210;-69
2024/02/20 05:58:54;;;;;;;2.87;1.97;;;21.50;56.60;;;;;;5053643;28;20183;-68
2024/02/20 06:01:20;;;;;;;2.90;2.20;;;21.50;56.60;;;;;;5055264;28;20245;-69
2024/02/20 06:03:46;;;;;;;2.10;1.80;;;21.50;56.70;;;;;;5055410;28;20530;-68
2024/02/20 06:06:12;;;;;;;2.23;1.90;;;21.50;57.30;;;;;;5054899;28;20182;-69
2024/02/20 06:08:43;;;;;;;2.30;2.10;;;21.50;56.70;;;;;;5055225;28;20416;-69
2024/02/20 06:11:15;;;;;;;2.63;1.77;;;21.50;56.70;;;;;;5054915;28;20410;-69
2024/02/20 06:13:42;;;;;;;2.00;1.60;;;21.50;56.70;;;;;;5053528;28;20429;-69
2024/02/20 06:16:08;;;;;;;2.33;1.80;;;21.50;56.80;;;;;;5053915;28;20477;-70
2024/02/20 06:18:33;;;;;;;2.30;1.60;;;21.50;56.80;;;;;;5053548;28;20970;-69
2024/02/20 06:20:59;;;;;;;1.80;1.70;;;21.50;56.80;;;;;;5054057;28;20410;-69
2024/02/20 06:23:24;;;;;;;2.07;1.70;;;21.50;56.80;;;;;;5053882;28;20198;-69
2024/02/20 06:25:50;;;;;;;2.67;1.80;;;21.60;56.80;;;;;;5053951;28;20171;-70
2024/02/20 06:28:18;;;;;;;3.37;1.80;;;21.60;56.80;;;;;;5052459;28;20708;-70
2024/02/20 06:30:43;;;;;;;3.70;1.80;;;21.60;56.80;;;;;;5053518;28;20187;-70
2024/02/20 06:33:09;;;;;;;2.20;2.00;;;21.60;56.80;;;;;;5054578;28;20445;-70
2024/02/20 06:35:35;;;;;;;3.40;2.13;;;21.60;56.90;;;;;;5054401;28;20752;-69
2024/02/20 06:38:00;;;;;;;2.20;1.90;;;21.60;56.90;;;;;;5054218;28;20642;-70
2024/02/20 06:40:26;;;;;;;3.17;1.83;;;21.60;56.90;;;;;;5052676;28;20175;-70
2024/02/20 06:42:52;;;;;;;2.30;1.73;;;21.60;56.80;;;;;;5053517;28;20206;-69
2024/02/20 06:45:17;;;;;;;3.70;2.33;;;21.60;56.90;;;;;;5053306;28;20179;-70
2024/02/20 06:47:43;;;;;;;1.93;1.60;;;21.60;56.90;;;;;;5053748;28;20420;-70
2024/02/20 06:50:12;;;;;;;1.90;1.57;;;21.60;56.80;;;;;;5053422;28;20199;-69
2024/02/20 06:52:43;;;;;;;2.80;1.83;;;21.60;56.80;;;;;;5053409;28;20201;-70
2024/02/20 06:55:08;;;;;;;3.57;1.80;;;21.60;56.80;;;;;;5053670;28;20392;-69
2024/02/20 06:57:35;;;;;;;2.57;2.17;;;21.60;56.80;;;;;;5053449;28;20401;-70
2024/02/20 07:00:04;;;;;;;4.10;2.13;;;21.60;56.80;;;;;;5053708;28;20175;-68
2024/02/20 07:02:30;;;;;;;1.80;1.60;;;21.60;56.80;;;;;;5053572;28;20421;-69
2024/02/20 07:04:56;;;;;;;4.67;1.80;;;21.60;56.90;;;;;;5053159;28;20496;-69
2024/02/20 07:07:22;;;;;;;2.67;2.37;;;21.60;56.80;;;;;;5052776;28;20479;-70
2024/02/20 07:09:48;;;;;;;4.00;1.90;;;21.60;56.80;;;;;;5053000;28;20468;-70
2024/02/20 07:12:13;;;;;;;2.20;1.63;;;21.60;56.80;;;;;;5051662;28;20686;-70
2024/02/20 07:14:39;;;;;;;3.07;1.73;;;21.60;56.80;;;;;;5053239;28;20258;-68
2024/02/20 07:17:04;;;;;;;1.97;1.77;;;21.60;56.80;;;;;;5053254;28;20178;-69
2024/02/20 07:19:30;;;;;;;1.83;1.67;;;21.60;56.80;;;;;;5053348;28;20190;-70
2024/02/20 07:21:59;;;;;;;1.73;1.30;;;21.60;56.80;;;;;;5051486;28;20256;-69
2024/02/20 07:24:24;;;;;;;2.80;1.90;;;21.60;56.80;;;;;;5052832;28;20261;-69
2024/02/20 07:26:50;;;;;;;2.50;1.50;;;21.70;56.90;;;;;;5053344;28;20517;-70
2024/02/20 07:29:18;;;;;;;1.83;1.60;;;21.60;56.80;;;;;;5053521;28;20202;-69
2024/02/20 07:31:45;;;;;;;2.00;1.60;;;21.60;56.80;;;;;;5052550;28;20186;-69
2024/02/20 07:34:11;;;;;;;2.00;1.63;;;21.60;56.80;;;;;;5052842;28;20496;-71
2024/02/20 07:36:37;;;;;;;2.77;2.03;;;21.60;56.80;;;;;;5052414;28;20497;-70
2024/02/20 07:39:02;;;;;;;1.97;1.50;;;21.60;56.80;;;;;;5052792;28;20520;-70
2024/02/20 07:41:28;;;;;;;1.80;1.50;;;21.60;56.80;;;;;;5052455;28;20420;-70
2024/02/20 07:43:54;;;;;;;3.20;2.10;;;21.60;56.80;;;;;;5052460;28;20175;-69
2024/02/20 07:46:19;;;;;;;2.80;1.97;;;21.60;56.80;;;;;;5052662;28;20305;-66
2024/02/20 07:48:46;;;;;;;2.17;1.37;;;21.60;56.80;;;;;;5052569;28;20194;-67
2024/02/20 07:51:11;;;;;;;2.97;1.87;;;21.60;56.80;;;;;;5052282;28;20166;-67
2024/02/20 07:53:37;;;;;;;2.33;2.10;;;21.60;56.80;;;;;;5051370;28;21032;-68
2024/02/20 07:56:07;;;;;;;2.37;2.07;;;21.60;56.80;;;;;;5052719;28;20574;-67
2024/02/20 07:58:34;;;;;;;4.10;1.67;;;21.60;56.80;;;;;;5052541;28;20159;-66
2024/02/20 08:01:00;;;;;;;1.80;1.53;;;21.60;56.90;;;;;;5053135;28;20414;-67
2024/02/20 08:03:25;;;;;;;2.17;1.97;;;21.60;56.90;;;;;;5052625;28;20429;-68
2024/02/20 08:05:51;;;;;;;2.23;1.70;;;21.60;56.90;;;;;;5052204;28;20175;-67
2024/02/20 08:08:17;;;;;;;2.90;1.93;;;21.60;56.90;;;;;;5052488;28;20171;-67
2024/02/20 08:10:43;;;;;;;2.60;1.77;;;21.60;56.90;;;;;;5052658;28;20677;-67
2024/02/20 08:13:09;;;;;;;3.00;1.70;;;21.60;56.90;;;;;;5052293;28;20491;-67
2024/02/20 08:15:35;;;;;;;1.83;1.70;;;21.60;56.90;;;;;;5052491;28;20297;-65
2024/02/20 08:18:00;;;;;;;2.90;1.53;;;21.60;56.90;;;;;;5051846;28;20493;-67
2024/02/20 08:20:26;;;;;;;2.60;2.10;;;21.60;56.90;;;;;;5052281;28;20167;-67
2024/02/20 08:22:52;;;;;;;3.43;2.13;;;21.60;56.90;;;;;;5052404;28;20705;-67
2024/02/20 08:25:17;;;;;;;1.70;1.40;;;21.60;56.90;;;;;;5052175;28;20666;-67
2024/02/20 08:27:43;;;;;;;1.80;1.43;;;21.60;56.90;;;;;;5051941;28;20258;-67
2024/02/20 08:30:09;;;;;;;2.60;1.80;;;21.60;56.90;;;;;;5052060;28;20206;-67
2024/02/20 08:32:35;;;;;;;2.30;1.70;;;21.60;56.90;;;;;;5052056;28;20328;-67
2024/02/20 08:35:01;;;;;;;2.20;1.77;;;21.70;57.00;;;;;;5052231;28;20488;-67
2024/02/20 08:37:29;;;;;;;2.17;1.57;;;21.70;57.00;;;;;;5052140;28;20179;-67
2024/02/20 08:39:54;;;;;;;2.40;1.80;;;21.70;57.00;;;;;;5052113;28;20194;-66
2024/02/20 08:42:20;;;;;;;2.20;1.80;;;21.70;57.00;;;;;;5051774;28;20433;-67
2024/02/20 08:44:46;;;;;;;1.83;1.63;;;21.70;57.00;;;;;;5052120;28;20642;-66
2024/02/20 08:47:11;;;;;;;2.67;2.03;;;21.70;57.00;;;;;;5050426;28;20424;-68
2024/02/20 08:49:37;;;;;;;2.60;1.77;;;21.70;57.00;;;;;;5052131;28;20654;-68
2024/02/20 08:52:03;;;;;;;2.20;1.70;;;21.70;57.00;;;;;;5051847;28;20191;-66
2024/02/20 08:54:28;;;;;;;2.23;1.70;;;21.70;57.00;;;;;;5052238;28;20167;-67
2024/02/20 08:56:56;;;;;;;3.10;1.70;;;21.70;57.00;;;;;;5052094;28;20258;-67
2024/02/20 08:59:22;;;;;;;2.17;1.70;;;21.70;57.00;;;;;;5051376;28;20177;-67
2024/02/20 09:01:48;;;;;;;3.20;1.70;;;21.70;57.00;;;;;;5052115;28;20551;-68
2024/02/20 09:04:13;;;;;;;3.13;2.30;;;21.70;57.00;;;;;;5051544;28;20182;-67
2024/02/20 09:06:45;;;;;;;3.70;2.27;;;21.70;57.00;;;;;;5052053;28;20175;-67
2024/02/20 09:09:10;;;;;;;1.90;1.60;;;21.70;57.00;;;;;;5051618;28;20211;-68
2024/02/20 09:11:36;;;;;;;1.97;1.53;;;21.70;57.00;;;;;;5051795;28;20444;-67
2024/02/20 09:14:01;;;;;;;2.73;1.53;;;21.70;57.00;;;;;;5051717;28;20241;-68
2024/02/20 09:16:27;;;;;;;2.20;1.80;;;21.70;57.00;;;;;;5051613;28;20199;-68
2024/02/20 09:18:52;;;;;;;2.83;1.50;;;21.70;57.00;;;;;;5051566;28;20187;-68
2024/02/20 09:21:18;;;;;;;1.83;1.63;;;21.70;57.00;;;;;;5050473;28;20709;-68
2024/02/20 09:23:44;;;;;;;2.20;1.47;;;21.70;57.00;;;;;;5051759;28;20179;-68
2024/02/20 09:26:10;;;;;;;2.40;1.50;;;21.70;57.10;;;;;;5051210;28;20182;-66
2024/02/20 09:28:37;;;;;;;2.03;1.40;;;21.70;57.00;;;;;;5052487;28;20186;-68
2024/02/20 09:31:02;;;;;;;2.03;1.43;;;21.70;57.10;;;;;;5055185;28;20590;-68
2024/02/20 09:33:32;;;;;;;2.20;1.50;;;21.70;57.10;;;;;;5055091;28;20508;-66
2024/02/20 09:35:58;;;;;;;1.70;1.23;;;21.70;57.10;;;;;;5055605;28;20219;-68
2024/02/20 09:38:23;;;;;;;2.20;1.60;;;21.70;57.10;;;;;;5055570;28;20965;-67
2024/02/20 09:40:49;;;;;;;2.57;1.57;;;21.70;57.10;;;;;;5055362;28;20178;-67
2024/02/20 09:43:17;;;;;;;2.07;1.63;;;21.70;57.10;;;;;;5055029;28;20284;-67
2024/02/20 09:45:44;;;;;;;1.93;1.23;;;21.70;57.10;;;;;;5055017;28;20456;-68
2024/02/20 09:48:10;;;;;;;1.60;1.30;;;21.70;57.10;;;;;;5054768;28;20405;-68
2024/02/20 09:50:41;;;;;;;1.60;1.30;;;21.70;57.10;;;;;;5055266;28;20453;-67
2024/02/20 09:53:07;;;;;;;2.13;1.43;;;21.70;57.10;;;;;;5054521;28;20430;-68
2024/02/20 09:55:33;;;;;;;1.73;1.20;;;21.70;57.10;;;;;;5055107;28;20438;-68
2024/02/20 09:57:59;;;;;;;2.67;1.70;;;21.70;57.10;;;;;;5054990;28;20496;-69
2024/02/20 10:00:25;;;;;;;1.53;1.43;;;21.70;57.10;;;;;;5054500;28;20500;-68
2024/02/20 10:02:56;;;;;;;1.73;1.37;;;21.70;57.10;;;;;;5054554;28;20550;-69
2024/02/20 10:05:22;;;;;;;1.97;1.50;;;21.70;57.10;;;;;;5054565;28;20413;-69
2024/02/20 10:07:58;;;;;;;2.90;1.53;;;21.70;57.10;;;;;;5054750;28;20410;-69
2024/02/20 10:10:26;;;;;;;1.90;1.60;;;21.70;57.10;;;;;;5053369;28;20182;-69
2024/02/20 10:13:02;;;;;;;1.70;1.33;;;21.70;57.10;;;;;;5055043;28;20582;-68
2024/02/20 10:15:28;;;;;;;1.80;1.47;;;21.70;57.10;;;;;;5052777;28;20483;-69
2024/02/20 10:18:01;;;;;;;3.27;1.50;;;21.70;57.10;;;;;;5053721;28;20409;-70
2024/02/20 10:20:30;;;;;;;2.30;1.60;;;21.70;57.10;;;;;;5053480;28;20475;-70
2024/02/20 10:23:06;;;;;;;1.73;1.37;;;21.70;57.10;;;;;;5053864;28;20440;-69
2024/02/20 10:25:32;;;;;;;2.20;1.47;;;21.70;57.10;;;;;;5053493;28;20420;-69
2024/02/20 10:27:58;;;;;;;1.43;1.20;;;21.70;57.10;;;;;;5053930;28;20414;-67
2024/02/20 10:30:24;;;;;;;2.37;1.70;;;21.70;57.10;;;;;;5055199;28;20728;-68
2024/02/20 10:32:50;;;;;;;1.67;1.57;;;21.70;57.10;;;;;;5053430;28;20429;-70
2024/02/20 10:35:15;;;;;;;1.77;1.40;;;21.70;57.10;;;;;;5053600;28;20171;-69
2024/02/20 10:37:41;;;;;;;1.90;1.47;;;21.70;57.10;;;;;;5053385;28;20225;-69
2024/02/20 10:40:09;;;;;;;1.60;1.50;;;21.70;57.10;;;;;;5053856;28;20189;-69
2024/02/20 10:42:36;;;;;;;2.30;1.53;;;21.70;57.10;;;;;;5053500;28;20256;-69
2024/02/20 10:45:06;;;;;;;2.03;1.63;;;21.70;57.10;;;;;;5053895;28;20428;-69
2024/02/20 10:47:39;;;;;;;1.93;1.50;;;21.80;57.20;;;;;;5053818;28;20493;-69
2024/02/20 10:50:07;;;;;;;2.43;1.60;;;21.70;57.10;;;;;;5051829;28;21023;-69
2024/02/20 10:52:35;;;;;;;1.53;1.40;;;21.70;57.10;;;;;;5052942;28;20472;-67
2024/02/20 10:55:05;;;;;;;1.60;1.17;;;21.70;57.10;;;;;;5053471;28;20498;-69
2024/02/20 10:57:35;;;;;;;2.63;1.50;;;21.70;57.10;;;;;;5053041;28;20436;-69
2024/02/20 11:00:11;;;;;;;2.20;1.37;;;21.70;57.10;;;;;;5053682;28;20398;-69
2024/02/20 11:02:45;;;;;;;2.10;1.60;;;21.70;57.70;;;;;;5053502;28;21009;-70
2024/02/20 11:05:12;;;;;;;1.67;1.30;;;21.70;57.10;;;;;;5053111;28;20394;-69
2024/02/20 11:07:38;;;;;;;2.43;1.50;;;21.70;57.10;;;;;;5052843;28;20422;-70
2024/02/20 11:10:18;;;;;;;2.07;1.53;;;21.70;57.10;;;;;;5052672;28;20468;-69
2024/02/20 11:12:44;;;;;;;4.47;1.83;;;21.70;57.10;;;;;;5052824;28;20464;-70
2024/02/20 11:15:20;;;;;;;1.57;1.30;;;21.70;57.10;;;;;;5053311;28;20977;-70
2024/02/20 11:17:50;;;;;;;1.63;1.43;;;21.70;57.10;;;;;;5052716;28;20393;-69
2024/02/20 11:20:17;;;;;;;1.90;1.40;;;21.70;57.10;;;;;;5051150;28;20429;-69
2024/02/20 11:22:46;;;;;;;2.50;1.50;;;21.70;57.10;;;;;;5053093;28;20849;-68
2024/02/20 11:25:32;;;;;;;2.23;1.20;;;21.70;57.10;;;;;;5053006;28;20421;-69
2024/02/20 11:27:57;;;;;;;1.57;1.40;;;21.70;57.20;;;;;;5052821;28;20393;-69
2024/02/20 11:30:25;;;;;;;1.83;1.23;;;21.70;57.20;;;;;;5052992;28;20460;-69
2024/02/20 11:32:52;;;;;;;2.10;1.50;;;21.70;57.20;;;;;;5052714;28;20195;-69
2024/02/20 11:35:30;;;;;;;3.73;2.07;;;21.70;57.20;;;;;;5052017;28;20412;-67
2024/02/20 11:37:57;;;;;;;5.60;3.80;;;21.70;57.20;;;;;;5052862;28;20406;-69
2024/02/20 11:40:28;;;;;;;4.80;3.50;;;21.70;57.20;;;;;;5051652;28;20449;-70
2024/02/20 11:42:57;;;;;;;3.00;2.10;;;21.70;57.20;;;;;;5052148;28;20448;-68
2024/02/20 11:45:25;;;;;;;3.40;2.70;;;21.70;57.20;;;;;;5052551;28;20418;-69
2024/02/20 11:48:04;;;;;;;5.40;3.27;;;21.70;57.20;;;;;;5052591;28;20977;-69
2024/02/20 11:50:34;;;;;;;6.10;4.17;;;21.70;57.20;;;;;;5052595;28;20472;-70
2024/02/20 11:53:11;;;;;;;6.87;4.97;;;21.70;57.20;;;;;;5052210;28;21178;-70
2024/02/20 11:55:40;;;;;;;10.93;6.33;;;21.70;57.20;;;;;;5052529;28;20421;-67
2024/02/20 11:58:07;;;;;;;6.43;4.43;;;21.70;57.20;;;;;;5050972;28;20413;-70
2024/02/20 12:00:40;;;;;;;8.60;6.73;;;21.70;57.20;;;;;;5051987;28;20413;-67
2024/02/20 12:03:09;;;;;;;8.47;5.80;;;21.70;57.20;;;;;;5052481;28;20437;-68
2024/02/20 12:05:40;;;;;;;12.43;7.50;;;21.70;57.20;;;;;;5053598;28;20447;-70
2024/02/20 12:08:17;;;;;;;15.07;10.40;;;21.70;57.30;;;;;;5051011;28;20441;-69
2024/02/20 12:10:43;;;;;;;15.93;10.57;;;21.70;57.30;;;;;;5052047;28;20472;-68
2024/02/20 12:13:19;;;;;;;17.30;11.00;;;21.70;57.20;;;;;;5052163;28;20437;-68
2024/02/20 12:15:49;;;;;;;12.87;9.90;;;21.70;57.30;;;;;;5051870;28;20417;-69
2024/02/20 12:18:24;;;;;;;15.97;11.10;;;21.70;57.30;;;;;;5051734;28;20494;-68
2024/02/20 12:20:50;;;;;;;14.53;10.37;;;21.70;57.30;;;;;;5050672;28;20429;-70
2024/02/20 12:23:22;;;;;;;18.17;11.13;;;21.70;57.30;;;;;;5050632;28;20448;-68
2024/02/20 12:25:47;;;;;;;18.70;11.77;;;21.70;57.30;;;;;;5052173;28;20248;-68
2024/02/20 12:28:14;;;;;;;18.33;12.10;;;21.80;57.40;;;;;;5052024;28;20421;-69
2024/02/20 12:30:41;;;;;;;16.60;12.50;;;21.80;57.40;;;;;;5051676;28;20203;-68
2024/02/20 12:33:07;;;;;;;17.80;12.03;;;21.80;57.40;;;;;;5051698;28;20426;-69
2024/02/20 12:35:33;;;;;;;14.20;11.93;;;21.80;57.40;;;;;;5052301;28;20417;-69
2024/02/20 12:37:58;;;;;;;17.90;11.80;;;21.80;57.40;;;;;;5051867;28;20416;-69
2024/02/20 12:40:25;;;;;;;22.20;12.10;;;21.80;57.40;;;;;;5052240;28;20206;-69
2024/02/20 12:42:51;;;;;;;16.57;11.90;;;21.80;57.50;;;;;;5050579;28;20202;-68